createdAt,value
2022-11-26T00:01:19.255Z,7.20
2022-11-26T00:03:52.123Z,7.18
2022-11-26T00:06:29.815Z,7.19
2022-11-26T00:09:02.288Z,7.18
2022-11-26T00:11:34.340Z,7.28
2022-11-26T00:14:07.757Z,7.23
2022-11-26T00:16:39.915Z,7.28
2022-11-26T00:19:11.045Z,7.26
2022-11-26T00:21:43.357Z,7.22
2022-11-26T00:24:31.304Z,7.15
2022-11-26T00:27:02.342Z,7.16
2022-11-26T00:29:34.673Z,7.24
2022-11-26T00:32:08.544Z,7.18
2022-11-26T00:34:42.715Z,7.21
2022-11-26T00:37:25.105Z,7.18
2022-11-26T00:39:57.068Z,7.16
2022-11-26T00:42:27.649Z,7.18
2022-11-26T00:44:59.882Z,7.16
2022-11-26T00:47:32.319Z,7.16
2022-11-26T00:50:02.850Z,7.20
2022-11-26T00:52:35.240Z,7.18
2022-11-26T00:55:11.829Z,7.22
2022-11-26T00:57:42.540Z,7.22
2022-11-26T01:00:16.378Z,7.20
2022-11-26T01:02:49.574Z,7.06
2022-11-26T01:05:22.211Z,7.08
2022-11-26T01:07:54.346Z,7.10
2022-11-26T01:10:32.237Z,7.12
2022-11-26T01:13:03.247Z,7.12
2022-11-26T01:15:33.809Z,7.10
2022-11-26T01:18:16.665Z,7.15
2022-11-26T01:20:50.757Z,7.19
2022-11-26T01:23:22.228Z,7.09
2022-11-26T01:25:53.461Z,7.10
2022-11-26T01:28:23.997Z,7.16
2022-11-26T01:30:54.708Z,7.10
2022-11-26T01:33:25.293Z,7.20
2022-11-26T01:35:57.658Z,7.20
2022-11-26T01:38:28.123Z,7.16
2022-11-26T01:41:06.933Z,7.22
2022-11-26T01:43:44.479Z,7.15
2022-11-26T01:46:17.824Z,7.19
2022-11-26T01:48:51.447Z,7.21
2022-11-26T01:51:28.806Z,7.22
2022-11-26T01:54:01.645Z,7.29
2022-11-26T01:56:44.533Z,7.26
2022-11-26T01:59:24.754Z,7.28
2022-11-26T02:01:58.353Z,7.34
2022-11-26T02:04:38.492Z,7.27
2022-11-26T02:07:09.225Z,7.29
2022-11-26T02:09:40.086Z,7.40
2022-11-26T02:12:10.697Z,7.31
2022-11-26T02:14:44.154Z,7.39
2022-11-26T02:17:17.633Z,7.36
2022-11-26T02:20:15.460Z,7.33
2022-11-26T02:22:57.667Z,7.41
2022-11-26T02:25:50.858Z,7.41
2022-11-26T02:28:58.137Z,7.43
2022-11-26T02:31:38.084Z,7.31
2022-11-26T02:34:12.214Z,7.34
2022-11-26T02:36:58.067Z,7.37
2022-11-26T02:39:31.060Z,7.48
2022-11-26T02:42:04.394Z,7.44
2022-11-26T02:44:43.929Z,7.46
2022-11-26T02:47:17.996Z,7.70
2022-11-26T02:49:51.249Z,7.46
2022-11-26T02:52:24.322Z,7.39
2022-11-26T02:54:56.648Z,7.52
2022-11-26T02:57:30.187Z,7.46
2022-11-26T03:00:00.776Z,7.50
2022-11-26T03:02:37.705Z,7.42
2022-11-26T03:05:12.075Z,7.42
2022-11-26T03:07:44.994Z,7.49
2022-11-26T03:10:20.273Z,7.40
2022-11-26T03:12:50.827Z,7.42
2022-11-26T03:15:21.723Z,7.42
2022-11-26T03:17:53.993Z,7.40
2022-11-26T03:20:24.647Z,7.38
2022-11-26T03:22:55.177Z,7.37
2022-11-26T03:25:25.792Z,7.46
2022-11-26T03:27:57.495Z,7.36
2022-11-26T03:30:28.204Z,7.40
2022-11-26T03:32:59.169Z,7.39
2022-11-26T03:35:29.748Z,7.46
2022-11-26T03:38:02.662Z,7.40
2022-11-26T03:40:34.066Z,7.45
2022-11-26T03:43:04.633Z,7.42
2022-11-26T03:45:37.731Z,7.66
2022-11-26T03:48:09.812Z,7.54
2022-11-26T03:50:40.412Z,7.57
2022-11-26T03:53:12.507Z,7.54
2022-11-26T03:55:43.879Z,7.55
2022-11-26T03:58:15.944Z,7.62
2022-11-26T04:00:58.958Z,7.56
2022-11-26T04:03:33.840Z,7.52
2022-11-26T04:06:04.942Z,7.52
2022-11-26T04:08:36.795Z,7.52
2022-11-26T04:11:07.447Z,7.52
2022-11-26T04:13:39.070Z,7.55
2022-11-26T04:16:11.086Z,7.51
2022-11-26T04:18:41.599Z,7.54
2022-11-26T04:21:12.661Z,7.57
2022-11-26T04:23:48.005Z,7.55
2022-11-26T04:26:19.660Z,7.56
2022-11-26T04:28:51.623Z,7.70
2022-11-26T04:31:22.779Z,7.64
2022-11-26T04:33:54.485Z,7.60
2022-11-26T04:36:32.650Z,7.61
2022-11-26T04:39:03.387Z,7.68
2022-11-26T04:41:34.895Z,7.61
2022-11-26T04:44:06.575Z,7.58
2022-11-26T04:46:37.460Z,7.64
2022-11-26T04:49:09.953Z,7.64
2022-11-26T04:51:40.899Z,7.62
2022-11-26T04:54:13.132Z,7.60
2022-11-26T04:56:45.075Z,7.66
2022-11-26T04:59:15.630Z,7.65
2022-11-26T05:01:46.158Z,7.69
2022-11-26T05:04:18.607Z,7.69
2022-11-26T05:06:49.254Z,7.66
2022-11-26T05:09:20.027Z,7.62
2022-11-26T05:11:50.640Z,7.64
2022-11-26T05:14:21.220Z,7.62
2022-11-26T05:16:52.007Z,7.70
2022-11-26T05:19:22.636Z,7.63
2022-11-26T05:21:53.553Z,7.64
2022-11-26T05:24:24.185Z,7.63
2022-11-26T05:26:57.129Z,7.72
2022-11-26T05:29:26.937Z,7.62
2022-11-26T05:31:57.784Z,7.68
2022-11-26T05:34:28.491Z,7.62
2022-11-26T05:36:59.017Z,7.62
2022-11-26T05:39:30.074Z,7.68
2022-11-26T05:42:04.844Z,7.60
2022-11-26T05:44:33.325Z,7.64
2022-11-26T05:47:03.822Z,7.60
2022-11-26T05:49:34.310Z,7.56
2022-11-26T05:52:05.085Z,7.59
2022-11-26T05:54:37.570Z,7.52
2022-11-26T05:57:07.548Z,7.54
2022-11-26T05:59:39.063Z,7.58
2022-11-26T06:02:09.736Z,7.54
2022-11-26T06:04:40.604Z,7.59
2022-11-26T06:07:11.633Z,7.59
2022-11-26T06:09:42.242Z,7.56
2022-11-26T06:12:16.483Z,7.56
2022-11-26T06:14:47.200Z,7.54
2022-11-26T06:17:19.832Z,7.53
2022-11-26T06:19:50.366Z,7.60
2022-11-26T06:22:22.064Z,7.58
2022-11-26T06:24:53.878Z,7.58
2022-11-26T06:27:24.413Z,7.58
2022-11-26T06:29:54.872Z,7.57
2022-11-26T06:32:25.440Z,7.64
2022-11-26T06:34:56.002Z,7.64
2022-11-26T06:37:27.246Z,7.63
2022-11-26T06:39:57.768Z,7.66
2022-11-26T06:42:29.876Z,7.64
2022-11-26T06:45:00.567Z,7.67
2022-11-26T06:47:31.188Z,7.65
2022-11-26T06:50:05.149Z,7.70
2022-11-26T06:52:34.515Z,7.64
2022-11-26T06:55:05.350Z,7.65
2022-11-26T06:57:36.056Z,7.65
2022-11-26T07:00:09.235Z,7.62
2022-11-26T07:02:39.954Z,7.63
2022-11-26T07:05:11.757Z,7.64
2022-11-26T07:07:42.359Z,7.66
2022-11-26T07:10:13.748Z,7.77
2022-11-26T07:12:44.301Z,7.66
2022-11-26T07:15:16.556Z,7.73
2022-11-26T07:17:48.409Z,7.70
2022-11-26T07:20:19.489Z,7.77
2022-11-26T07:22:50.059Z,7.66
2022-11-26T07:25:20.613Z,7.66
2022-11-26T07:27:52.146Z,7.70
2022-11-26T07:30:22.907Z,7.72
2022-11-26T07:32:53.645Z,7.71
2022-11-26T07:35:24.456Z,7.68
2022-11-26T07:37:55.044Z,7.66
2022-11-26T07:40:25.472Z,7.68
2022-11-26T07:42:56.093Z,7.70
2022-11-26T07:45:28.776Z,7.72
2022-11-26T07:47:59.278Z,7.86
2022-11-26T07:50:30.013Z,7.77
2022-11-26T07:53:00.441Z,7.72
2022-11-26T07:55:31.024Z,7.80
2022-11-26T07:58:03.032Z,7.83
2022-11-26T08:00:34.092Z,7.88
2022-11-26T08:03:04.639Z,7.87
2022-11-26T08:05:35.191Z,7.82
2022-11-26T08:08:07.279Z,7.95
2022-11-26T08:10:38.188Z,7.82
2022-11-26T08:13:08.714Z,7.91
2022-11-26T08:15:40.230Z,7.89
2022-11-26T08:18:11.896Z,7.88
2022-11-26T08:20:42.497Z,7.92
2022-11-26T08:23:12.942Z,7.96
2022-11-26T08:26:06.000Z,7.94
2022-11-26T08:28:16.736Z,7.98
2022-11-26T08:30:47.627Z,7.97
2022-11-26T08:33:18.231Z,8.08
2022-11-26T08:36:06.223Z,8.24
2022-11-26T08:38:24.610Z,8.08
2022-11-26T08:40:56.117Z,8.14
2022-11-26T08:43:39.817Z,8.14
2022-11-26T08:46:00.720Z,8.16
2022-11-26T08:48:33.100Z,8.29
2022-11-26T08:51:07.040Z,8.06
2022-11-26T08:53:39.562Z,8.10
2022-11-26T08:56:13.141Z,8.16
2022-11-26T08:58:45.686Z,8.13
2022-11-26T09:01:21.790Z,8.04
2022-11-26T09:03:56.177Z,8.20
2022-11-26T09:06:29.591Z,8.16
2022-11-26T09:09:14.019Z,8.21
2022-11-26T09:11:57.361Z,8.12
2022-11-26T09:14:30.751Z,8.20
2022-11-26T09:17:01.771Z,8.28
2022-11-26T09:19:33.730Z,8.27
2022-11-26T09:22:05.821Z,8.22
2022-11-26T09:24:38.004Z,8.38
2022-11-26T09:27:10.269Z,8.26
2022-11-26T09:29:40.770Z,8.17
2022-11-26T09:32:31.079Z,8.28
2022-11-26T09:34:47.274Z,8.22
2022-11-26T09:37:19.086Z,8.16
2022-11-26T09:39:52.247Z,8.17
2022-11-26T09:42:31.429Z,8.24
2022-11-26T09:45:14.659Z,8.29
2022-11-26T09:47:48.179Z,8.14
2022-11-26T09:50:28.664Z,8.12
2022-11-26T09:53:02.231Z,8.22
2022-11-26T09:55:35.940Z,8.20
2022-11-26T09:58:27.491Z,8.16
2022-11-26T10:01:00.910Z,8.22
2022-11-26T10:03:42.379Z,8.22
2022-11-26T10:06:30.864Z,8.22
2022-11-26T10:09:10.039Z,8.10
2022-11-26T10:12:03.858Z,8.04
2022-11-26T10:14:52.419Z,8.05
2022-11-26T10:17:28.733Z,8.16
2022-11-26T10:20:11.223Z,8.11
2022-11-26T10:22:57.497Z,8.14
2022-11-26T10:25:31.567Z,8.08
2022-11-26T10:28:04.530Z,7.96
2022-11-26T10:30:35.176Z,7.98
2022-11-26T10:33:08.129Z,7.98
2022-11-26T10:35:42.568Z,7.98
2022-11-26T10:38:13.196Z,7.87
2022-11-26T10:40:45.283Z,7.85
2022-11-26T10:43:21.844Z,7.82
2022-11-26T10:45:56.941Z,7.90
2022-11-26T10:48:33.443Z,7.80
2022-11-26T10:51:28.230Z,7.66
2022-11-26T10:54:04.898Z,7.65
2022-11-26T10:56:45.600Z,7.72
2022-11-26T10:59:29.373Z,7.77
2022-11-26T11:02:04.832Z,7.82
2022-11-26T11:04:38.514Z,7.74
2022-11-26T11:07:12.611Z,7.76
2022-11-26T11:09:44.631Z,7.72
2022-11-26T11:12:22.855Z,7.84
2022-11-26T11:14:53.802Z,7.88
2022-11-26T11:17:35.892Z,8.01
2022-11-26T11:20:23.593Z,8.08
2022-11-26T11:23:04.854Z,8.14
2022-11-26T11:25:39.776Z,8.18
2022-11-26T11:28:23.973Z,8.08
2022-11-26T11:31:06.409Z,8.10
2022-11-26T11:33:38.811Z,8.22
2022-11-26T11:36:19.238Z,8.36
2022-11-26T11:38:54.155Z,8.36
2022-11-26T11:41:34.093Z,8.26
2022-11-26T11:44:22.830Z,8.45
2022-11-26T11:47:11.107Z,8.60
2022-11-26T11:49:53.294Z,8.31
2022-11-26T11:52:32.713Z,8.31
2022-11-26T11:55:25.462Z,8.40
2022-11-26T11:58:35.854Z,8.40
2022-11-26T12:01:15.090Z,8.45
2022-11-26T12:03:57.575Z,8.44
2022-11-26T12:06:48.146Z,8.51
2022-11-26T12:09:21.736Z,8.58
2022-11-26T12:12:03.035Z,8.52
2022-11-26T12:14:47.307Z,8.56
2022-11-26T12:17:33.198Z,8.58
2022-11-26T12:20:17.083Z,8.40
2022-11-26T12:23:02.377Z,8.52
2022-11-26T12:25:38.572Z,8.59
2022-11-26T12:28:23.208Z,8.80
2022-11-26T12:31:01.777Z,8.71
2022-11-26T12:33:43.038Z,8.50
2022-11-26T12:36:23.262Z,8.54
2022-11-26T12:38:58.160Z,8.51
2022-11-26T12:41:54.579Z,8.47
2022-11-26T12:44:31.951Z,8.60
2022-11-26T12:47:22.262Z,8.55
2022-11-26T12:50:07.922Z,8.66
2022-11-26T12:52:54.074Z,8.54
2022-11-26T12:55:37.797Z,8.62
2022-11-26T12:58:15.389Z,8.61
2022-11-26T13:00:46.963Z,8.80
2022-11-26T13:03:19.256Z,8.74
2022-11-26T13:06:09.421Z,8.50
2022-11-26T13:09:06.595Z,8.57
2022-11-26T13:11:49.797Z,8.62
2022-11-26T13:14:37.361Z,8.60
2022-11-26T13:17:17.162Z,8.52
2022-11-26T13:20:05.503Z,8.62
2022-11-26T13:22:42.355Z,8.56
2022-11-26T13:25:43.625Z,8.63
2022-11-26T13:28:20.631Z,8.56
2022-11-26T13:31:28.425Z,8.43
2022-11-26T13:34:20.238Z,8.50
2022-11-26T13:37:06.137Z,8.30
2022-11-26T13:39:52.609Z,8.48
2022-11-26T13:42:35.089Z,8.44
2022-11-26T13:45:26.697Z,8.34
2022-11-26T13:48:00.893Z,8.16
2022-11-26T13:50:34.517Z,8.02
2022-11-26T13:53:25.010Z,8.06
2022-11-26T13:55:55.949Z,7.93
2022-11-26T13:58:29.461Z,7.92
2022-11-26T14:01:20.115Z,7.82
2022-11-26T14:03:59.216Z,7.81
2022-11-26T14:06:34.641Z,7.80
2022-11-26T14:09:13.889Z,7.83
2022-11-26T14:11:52.304Z,7.86
2022-11-26T14:14:30.722Z,7.87
2022-11-26T14:17:07.679Z,7.96
2022-11-26T14:19:44.155Z,8.02
2022-11-26T14:22:23.691Z,7.95
2022-11-26T14:24:57.150Z,8.11
2022-11-26T14:27:36.654Z,8.02
2022-11-26T14:30:20.997Z,7.95
2022-11-26T14:33:01.639Z,8.00
2022-11-26T14:35:39.096Z,8.12
2022-11-26T14:38:26.848Z,8.08
2022-11-26T14:41:04.003Z,8.01
2022-11-26T14:43:36.467Z,8.18
2022-11-26T14:46:19.882Z,8.06
2022-11-26T14:48:52.616Z,8.00
2022-11-26T14:51:26.428Z,8.04
2022-11-26T14:54:01.119Z,8.11
2022-11-26T14:56:33.790Z,8.02
2022-11-26T14:59:05.635Z,8.11
2022-11-26T15:01:36.593Z,8.01
2022-11-26T15:04:08.556Z,8.16
2022-11-26T15:06:43.192Z,8.18
2022-11-26T15:09:21.795Z,8.06
2022-11-26T15:11:55.962Z,8.16
2022-11-26T15:14:52.697Z,8.15
2022-11-26T15:17:29.630Z,8.15
2022-11-26T15:20:04.983Z,7.97
2022-11-26T15:22:45.385Z,7.93
2022-11-26T15:25:24.886Z,7.86
2022-11-26T15:28:06.876Z,8.02
2022-11-26T15:30:39.151Z,7.96
2022-11-26T15:33:12.799Z,7.87
2022-11-26T15:35:44.644Z,7.84
2022-11-26T15:38:21.913Z,7.90
2022-11-26T15:40:59.726Z,8.07
2022-11-26T15:43:48.268Z,7.88
2022-11-26T15:46:21.915Z,7.85
2022-11-26T15:48:58.275Z,8.00
2022-11-26T15:51:40.386Z,7.94
2022-11-26T15:54:49.659Z,8.00
2022-11-26T15:57:08.154Z,7.98
2022-11-26T15:59:46.529Z,8.00
2022-11-26T16:02:26.086Z,7.94
2022-11-26T16:05:10.662Z,7.90
2022-11-26T16:07:38.887Z,7.76
2022-11-26T16:10:19.622Z,7.72
2022-11-26T16:13:11.812Z,7.72
2022-11-26T16:15:55.163Z,7.78
2022-11-26T16:18:29.932Z,7.87
2022-11-26T16:21:07.833Z,7.88
2022-11-26T16:23:38.503Z,7.88
2022-11-26T16:26:19.427Z,7.82
2022-11-26T16:28:51.283Z,7.76
2022-11-26T16:31:22.811Z,7.96
2022-11-26T16:33:55.741Z,7.74
2022-11-26T16:36:31.050Z,7.83
2022-11-26T16:39:01.480Z,7.82
2022-11-26T16:41:32.679Z,7.91
2022-11-26T16:44:05.854Z,8.02
2022-11-26T16:46:40.940Z,8.02
2022-11-26T16:49:12.014Z,7.82
2022-11-26T16:51:42.590Z,7.78
2022-11-26T16:54:14.597Z,7.85
2022-11-26T16:56:48.544Z,7.84
2022-11-26T16:59:23.849Z,7.86
2022-11-26T17:01:54.384Z,7.88
2022-11-26T17:04:28.649Z,8.02
2022-11-26T17:07:00.013Z,8.12
2022-11-26T17:09:33.711Z,8.06
2022-11-26T17:12:04.140Z,8.06
2022-11-26T17:14:37.057Z,8.25
2022-11-26T17:17:09.241Z,8.26
2022-11-26T17:19:41.884Z,8.11
2022-11-26T17:22:13.603Z,8.05
2022-11-26T17:24:44.258Z,8.14
2022-11-26T17:27:17.658Z,8.14
2022-11-26T17:29:48.886Z,8.34
2022-11-26T17:32:20.421Z,8.27
2022-11-26T17:34:52.276Z,8.09
2022-11-26T17:37:31.775Z,8.30
2022-11-26T17:40:03.044Z,7.93
2022-11-26T17:42:37.013Z,8.14
2022-11-26T17:45:08.585Z,8.19
2022-11-26T17:47:40.040Z,8.10
2022-11-26T17:50:28.547Z,8.03
2022-11-26T17:52:59.070Z,7.96
2022-11-26T17:55:29.713Z,8.06
2022-11-26T17:58:01.240Z,8.04
2022-11-26T18:00:32.073Z,7.94
2022-11-26T18:03:04.208Z,7.97
2022-11-26T18:05:39.103Z,8.12
2022-11-26T18:08:07.238Z,8.22
2022-11-26T18:10:43.579Z,8.10
2022-11-26T18:13:18.146Z,8.06
2022-11-26T18:15:48.857Z,8.05
2022-11-26T18:18:19.552Z,8.06
2022-11-26T18:20:50.668Z,8.05
2022-11-26T18:23:21.270Z,8.14
2022-11-26T18:25:53.272Z,8.07
2022-11-26T18:28:25.618Z,8.14
2022-11-26T18:30:59.817Z,8.07
2022-11-26T18:33:30.613Z,7.96
2022-11-26T18:36:02.530Z,7.95
2022-11-26T18:38:33.485Z,8.14
2022-11-26T18:41:06.369Z,7.92
2022-11-26T18:43:40.702Z,8.04
2022-11-26T18:46:17.289Z,8.14
2022-11-26T18:48:49.791Z,8.06
2022-11-26T18:51:20.617Z,8.02
2022-11-26T18:53:51.458Z,8.16
2022-11-26T18:56:24.194Z,8.14
2022-11-26T18:58:56.261Z,8.22
2022-11-26T19:01:30.622Z,8.16
2022-11-26T19:04:01.396Z,8.22
2022-11-26T19:06:34.202Z,8.20
2022-11-26T19:09:15.251Z,8.02
2022-11-26T19:11:47.570Z,8.22
2022-11-26T19:14:18.189Z,8.18
2022-11-26T19:16:51.253Z,8.09
2022-11-26T19:19:22.545Z,8.20
2022-11-26T19:21:59.320Z,8.18
2022-11-26T19:24:26.558Z,8.20
2022-11-26T19:26:57.423Z,8.24
2022-11-26T19:29:29.089Z,8.24
2022-11-26T19:31:59.882Z,8.20
2022-11-26T19:34:32.133Z,8.26
2022-11-26T19:37:02.635Z,8.30
2022-11-26T19:39:33.503Z,8.52
2022-11-26T19:42:04.211Z,8.26
2022-11-26T19:44:36.216Z,8.22
2022-11-26T19:47:06.907Z,8.18
2022-11-26T19:49:37.602Z,8.10
2022-11-26T19:52:09.916Z,8.13
2022-11-26T19:54:40.344Z,8.16
2022-11-26T19:57:10.862Z,8.30
2022-11-26T19:59:41.630Z,8.37
2022-11-26T20:02:12.296Z,8.38
2022-11-26T20:04:43.008Z,8.34
2022-11-26T20:07:14.528Z,8.34
2022-11-26T20:09:46.773Z,8.22
2022-11-26T20:12:17.250Z,8.37
2022-11-26T20:14:48.809Z,8.44
2022-11-26T20:17:20.898Z,8.49
2022-11-26T20:19:52.006Z,8.25
2022-11-26T20:22:27.840Z,8.32
2022-11-26T20:24:56.744Z,8.28
2022-11-26T20:27:28.770Z,8.38
2022-11-26T20:29:59.675Z,8.27
2022-11-26T20:32:34.919Z,8.38
2022-11-26T20:35:06.936Z,8.30
2022-11-26T20:37:37.686Z,8.49
2022-11-26T20:40:09.632Z,8.40
2022-11-26T20:42:40.776Z,8.37
2022-11-26T20:45:11.377Z,8.35
2022-11-26T20:47:44.683Z,8.29
2022-11-26T20:50:16.868Z,8.32
2022-11-26T20:52:50.041Z,8.36
2022-11-26T20:55:22.115Z,8.26
2022-11-26T20:57:52.794Z,8.10
2022-11-26T21:00:27.522Z,8.16
2022-11-26T21:02:56.078Z,8.08
2022-11-26T21:05:28.035Z,8.16
2022-11-26T21:07:58.565Z,8.30
2022-11-26T21:10:29.093Z,8.14
2022-11-26T21:13:01.509Z,8.03
2022-11-26T21:15:31.711Z,8.08
2022-11-26T21:18:02.525Z,8.12
2022-11-26T21:20:36.183Z,8.11
2022-11-26T21:23:05.366Z,8.15
2022-11-26T21:25:41.571Z,8.20
2022-11-26T21:28:15.986Z,8.13
2022-11-26T21:30:47.789Z,8.14
2022-11-26T21:33:19.982Z,8.26
2022-11-26T21:35:50.532Z,8.12
2022-11-26T21:38:26.516Z,8.26
2022-11-26T21:40:53.574Z,8.16
2022-11-26T21:43:24.019Z,8.20
2022-11-26T21:45:54.780Z,8.02
2022-11-26T21:48:25.285Z,8.14
2022-11-26T21:50:55.818Z,8.10
2022-11-26T21:53:26.339Z,8.16
2022-11-26T21:55:56.874Z,8.08
2022-11-26T21:58:27.825Z,8.20
2022-11-26T22:00:58.958Z,8.14
2022-11-26T22:03:29.574Z,8.21
2022-11-26T22:06:01.735Z,8.26
2022-11-26T22:08:34.868Z,8.16
2022-11-26T22:11:14.436Z,8.13
2022-11-26T22:13:47.025Z,8.18
2022-11-26T22:16:19.905Z,8.30
2022-11-26T22:18:51.723Z,8.12
2022-11-26T22:21:25.170Z,8.13
2022-11-26T22:23:55.997Z,8.34
2022-11-26T22:26:27.008Z,8.19
2022-11-26T22:28:59.157Z,8.18
2022-11-26T22:31:37.580Z,8.10
2022-11-26T22:34:13.984Z,8.06
2022-11-26T22:36:45.588Z,8.11
2022-11-26T22:39:19.904Z,8.05
2022-11-26T22:41:52.306Z,7.99
2022-11-26T22:44:24.131Z,7.94
2022-11-26T22:46:55.617Z,8.09
2022-11-26T22:49:28.303Z,8.06
2022-11-26T22:51:58.812Z,8.02
2022-11-26T22:54:29.652Z,8.16
2022-11-26T22:57:00.185Z,8.06
2022-11-26T22:59:35.044Z,8.10
2022-11-26T23:02:07.269Z,8.16
2022-11-26T23:04:43.994Z,8.17
2022-11-26T23:07:18.524Z,8.12
2022-11-26T23:09:49.442Z,8.16
2022-11-26T23:12:23.490Z,7.94
2022-11-26T23:14:54.251Z,8.36
2022-11-26T23:17:27.300Z,8.41
2022-11-26T23:19:59.626Z,8.22
2022-11-26T23:22:30.360Z,8.10
2022-11-26T23:25:02.674Z,8.22
2022-11-26T23:27:35.955Z,8.20
2022-11-26T23:30:08.762Z,8.19
2022-11-26T23:32:41.041Z,8.28
2022-11-26T23:35:11.581Z,8.28
2022-11-26T23:37:45.850Z,8.11
2022-11-26T23:40:18.101Z,8.06
2022-11-26T23:42:51.063Z,8.10
2022-11-26T23:45:23.624Z,8.22
2022-11-26T23:47:59.188Z,8.16
2022-11-26T23:50:36.479Z,8.02
2022-11-26T23:53:08.674Z,7.76
2022-11-26T23:55:40.224Z,7.76
2022-11-26T23:58:10.968Z,7.50
